createdAt,value
2022-10-20T00:03:48.527Z,16.65
2022-10-20T00:08:42.879Z,11.23
2022-10-20T00:13:36.918Z,11.90
2022-10-20T00:18:31.728Z,10.70
2022-10-20T00:23:28.551Z,9.75
2022-10-20T00:28:21.973Z,11.70
2022-10-20T00:33:18.505Z,15.25
2022-10-20T00:38:15.018Z,13.60
2022-10-20T00:43:13.361Z,13.07
2022-10-20T00:48:13.805Z,12.63
2022-10-20T00:53:08.738Z,12.23
2022-10-20T00:58:05.465Z,10.90
2022-10-20T01:03:04.095Z,15.60
2022-10-20T01:15:50.545Z,13.75
2022-10-20T01:21:30.337Z,10.98
2022-10-20T01:27:10.862Z,12.80
2022-10-20T01:32:17.744Z,13.90
2022-10-20T01:37:34.047Z,14.45
2022-10-20T01:42:36.500Z,13.05
2022-10-20T01:47:34.268Z,11.95
2022-10-20T01:52:31.713Z,12.20
2022-10-20T01:57:44.129Z,12.32
2022-10-20T02:03:01.102Z,12.23
2022-10-20T02:07:58.578Z,11.57
2022-10-20T02:12:56.219Z,11.80
2022-10-20T02:18:00.141Z,12.45
2022-10-20T02:22:54.180Z,15.73
2022-10-20T02:27:57.695Z,15.15
2022-10-20T02:33:00.864Z,15.25
2022-10-20T02:37:56.225Z,19.40
2022-10-20T02:42:49.922Z,15.73
2022-10-20T02:47:45.021Z,14.93
2022-10-20T02:52:44.853Z,16.50
2022-10-20T02:57:39.893Z,17.35
2022-10-20T03:02:33.221Z,14.98
2022-10-20T03:07:28.329Z,15.02
2022-10-20T03:12:32.239Z,20.55
2022-10-20T03:17:28.417Z,18.23
2022-10-20T03:22:24.595Z,17.05
2022-10-20T03:27:18.013Z,15.52
2022-10-20T03:32:12.669Z,16.15
2022-10-20T03:37:08.097Z,20.73
2022-10-20T03:42:03.904Z,18.98
2022-10-20T03:47:03.770Z,20.02
2022-10-20T03:52:01.713Z,19.90
2022-10-20T03:56:58.422Z,22.23
2022-10-20T04:01:53.897Z,25.33
2022-10-20T04:06:48.986Z,22.70
2022-10-20T04:12:12.416Z,23.10
2022-10-20T04:23:16.288Z,21.38
2022-10-20T04:28:24.549Z,20.47
2022-10-20T04:34:21.806Z,21.37
2022-10-20T04:46:50.661Z,28.77
2022-10-20T04:51:55.351Z,25.77
2022-10-20T05:07:56.386Z,21.15
2022-10-20T05:13:47.852Z,29.15
2022-10-20T05:18:46.775Z,40.40
2022-10-20T05:23:46.377Z,24.38
2022-10-20T05:28:56.079Z,28.35
2022-10-20T05:33:52.431Z,35.80
2022-10-20T05:38:45.552Z,30.73
2022-10-20T05:43:38.735Z,31.08
2022-10-20T05:48:31.918Z,26.88
2022-10-20T05:53:26.355Z,29.98
2022-10-20T05:58:20.900Z,38.42
2022-10-20T06:03:17.627Z,32.65
2022-10-20T06:08:12.075Z,37.72
2022-10-20T06:13:06.478Z,35.58
2022-10-20T06:17:59.543Z,30.38
2022-10-20T06:22:52.620Z,32.45
2022-10-20T06:27:45.791Z,41.40
2022-10-20T06:32:40.191Z,53.78
2022-10-20T06:37:34.265Z,64.13
2022-10-20T06:42:28.706Z,33.47
2022-10-20T06:47:21.802Z,11.07
2022-10-20T06:52:16.311Z,9.60
2022-10-20T06:57:09.385Z,9.32
2022-10-20T07:02:02.877Z,7.88
2022-10-20T07:06:56.069Z,4.90
2022-10-20T07:11:54.278Z,5.15
2022-10-20T07:16:47.370Z,6.90
2022-10-20T07:21:45.324Z,5.78
2022-10-20T07:26:41.329Z,6.45
2022-10-20T07:31:38.817Z,4.70
2022-10-20T07:36:35.987Z,3.90
2022-10-20T07:41:29.702Z,5.40
2022-10-20T07:46:23.226Z,6.07
2022-10-20T07:51:26.107Z,6.40
2022-10-20T07:56:20.628Z,4.53
2022-10-20T08:01:14.071Z,5.05
2022-10-20T08:06:07.955Z,9.15
2022-10-20T08:11:02.723Z,6.95
2022-10-20T08:15:56.173Z,4.80
2022-10-20T08:20:49.314Z,3.28
2022-10-20T08:25:42.895Z,5.47
2022-10-20T08:30:37.748Z,4.05
2022-10-20T08:35:30.810Z,3.83
2022-10-20T08:40:27.239Z,3.15
2022-10-20T08:45:22.291Z,2.75
2022-10-20T08:50:19.071Z,5.45
2022-10-20T09:00:16.765Z,3.25
2022-10-20T09:05:13.997Z,3.47
2022-10-20T09:10:24.417Z,4.90
2022-10-20T09:15:19.360Z,3.10
2022-10-20T09:20:20.629Z,5.13
2022-10-20T09:25:18.023Z,3.58
2022-10-20T09:30:20.211Z,5.40
2022-10-20T09:35:19.973Z,4.53
2022-10-20T09:40:17.584Z,3.00
2022-10-20T09:45:22.152Z,3.97
2022-10-20T09:50:21.821Z,4.43
2022-10-20T09:55:29.418Z,2.97
2022-10-20T10:00:41.035Z,3.28
2022-10-20T10:05:35.220Z,3.10
2022-10-20T10:10:31.693Z,4.38
2022-10-20T10:15:29.153Z,4.13
2022-10-20T10:20:34.819Z,4.00
2022-10-20T10:25:31.272Z,3.70
2022-10-20T10:30:30.792Z,2.67
2022-10-20T10:35:27.760Z,3.55
2022-10-20T10:40:24.581Z,3.97
2022-10-20T10:45:34.142Z,3.42
2022-10-20T10:50:32.217Z,3.80
2022-10-20T10:55:48.627Z,4.63
2022-10-20T11:00:55.778Z,3.00
2022-10-20T11:06:05.173Z,3.42
2022-10-20T11:11:07.257Z,5.95
2022-10-20T11:16:16.623Z,4.18
2022-10-20T11:21:24.304Z,4.88
2022-10-20T11:26:28.953Z,3.03
2022-10-20T11:31:29.482Z,3.20
2022-10-20T11:36:25.752Z,3.72
2022-10-20T11:41:23.862Z,3.70
2022-10-20T11:46:22.042Z,3.33
2022-10-20T11:51:49.480Z,3.17
2022-10-20T11:57:02.057Z,3.22
2022-10-20T12:02:25.383Z,3.80
2022-10-20T12:08:11.040Z,3.88
2022-10-20T12:13:26.281Z,4.75
2022-10-20T12:18:26.899Z,4.00
2022-10-20T12:23:54.673Z,3.38
2022-10-20T12:28:49.210Z,3.17
2022-10-20T12:34:01.218Z,2.88
2022-10-20T12:38:56.301Z,3.85
2022-10-20T12:43:54.494Z,5.10
2022-10-20T12:48:56.617Z,4.20
2022-10-20T12:53:56.148Z,3.45
2022-10-20T12:59:22.045Z,4.32
2022-10-20T13:04:47.831Z,3.28
2022-10-20T13:09:59.026Z,4.80
2022-10-20T13:15:03.625Z,3.63
2022-10-20T13:20:01.933Z,4.45
2022-10-20T13:24:56.858Z,7.95
2022-10-20T13:29:50.101Z,4.40
2022-10-20T13:34:51.254Z,7.47
2022-10-20T13:39:54.238Z,4.53
2022-10-20T13:44:57.895Z,5.70
2022-10-20T13:50:06.034Z,4.22
2022-10-20T13:55:01.203Z,3.00
2022-10-20T13:59:59.559Z,9.68
2022-10-20T14:05:09.519Z,6.13
2022-10-20T14:10:02.676Z,5.72
2022-10-20T14:15:01.941Z,4.68
2022-10-20T14:20:18.844Z,4.32
2022-10-20T14:25:12.859Z,4.10
2022-10-20T14:30:07.607Z,4.22
2022-10-20T14:35:03.579Z,5.28
2022-10-20T14:40:02.153Z,5.88
2022-10-20T14:44:57.444Z,5.03
2022-10-20T14:49:52.828Z,5.60
2022-10-20T14:54:47.763Z,5.22
2022-10-20T14:59:52.602Z,6.70
2022-10-20T15:04:47.275Z,7.90
2022-10-20T15:09:43.802Z,6.22
2022-10-20T15:14:36.980Z,6.32
2022-10-20T15:19:35.250Z,4.93
2022-10-20T15:24:30.144Z,10.70
2022-10-20T15:35:16.941Z,6.05
2022-10-20T15:40:51.762Z,6.15
2022-10-20T15:46:18.531Z,5.15
2022-10-20T15:51:29.954Z,5.53
2022-10-20T15:56:28.168Z,9.15
2022-10-20T16:01:25.875Z,8.60
2022-10-20T16:06:35.310Z,8.02
2022-10-20T16:11:34.431Z,7.53
2022-10-20T16:16:28.091Z,9.02
2022-10-20T16:21:32.142Z,8.90
2022-10-20T16:26:28.707Z,10.13
2022-10-20T16:31:31.104Z,10.63
2022-10-20T16:36:24.606Z,8.95
2022-10-20T16:41:22.318Z,6.43
2022-10-20T16:46:23.102Z,9.93
2022-10-20T16:51:29.345Z,7.32
2022-10-20T16:56:52.428Z,8.52
2022-10-20T17:01:56.476Z,8.40
2022-10-20T17:06:49.953Z,6.93
2022-10-20T17:12:16.247Z,7.70
2022-10-20T17:17:15.011Z,6.50
2022-10-20T17:22:51.498Z,8.07
2022-10-20T17:27:46.884Z,7.75
2022-10-20T17:33:07.399Z,6.57
2022-10-20T17:38:12.146Z,5.72
2022-10-20T17:49:18.793Z,6.97
2022-10-20T17:54:30.724Z,6.90
2022-10-20T17:59:47.289Z,7.57
2022-10-20T18:04:51.229Z,4.78
2022-10-20T18:09:54.950Z,6.30
2022-10-20T18:14:58.256Z,4.80
2022-10-20T18:19:57.765Z,5.90
2022-10-20T18:25:58.338Z,5.03
2022-10-20T18:30:38.918Z,8.30
2022-10-20T18:35:33.856Z,6.32
2022-10-20T18:40:35.689Z,8.07
2022-10-20T18:45:38.531Z,8.03
2022-10-20T18:50:35.660Z,7.00
2022-10-20T18:55:29.078Z,4.53
2022-10-20T19:00:22.709Z,6.38
2022-10-20T19:05:18.192Z,7.82
2022-10-20T19:10:17.999Z,5.38
2022-10-20T19:15:16.909Z,5.80
2022-10-20T19:20:10.952Z,5.38
2022-10-20T19:25:04.403Z,8.05
2022-10-20T19:30:01.034Z,4.65
2022-10-20T19:34:56.924Z,6.75
2022-10-20T19:39:53.189Z,8.15
2022-10-20T19:44:48.184Z,8.32
2022-10-20T19:49:42.846Z,4.30
2022-10-20T19:54:36.513Z,5.30
2022-10-20T19:59:29.799Z,5.43
2022-10-20T20:04:23.136Z,8.15
2022-10-20T20:09:20.086Z,8.65
2022-10-20T20:14:16.268Z,6.43
2022-10-20T20:19:09.653Z,6.00
2022-10-20T20:24:05.242Z,6.07
2022-10-20T20:29:02.533Z,5.38
2022-10-20T20:33:56.796Z,6.00
2022-10-20T20:38:52.574Z,5.75
2022-10-20T20:43:48.375Z,5.80
2022-10-20T20:48:45.871Z,5.20
2022-10-20T20:53:39.831Z,8.05
2022-10-20T20:58:33.577Z,5.15
2022-10-20T21:03:26.777Z,4.97
2022-10-20T21:08:21.311Z,6.97
2022-10-20T21:13:14.540Z,4.85
2022-10-20T21:18:07.788Z,5.05
2022-10-20T21:23:00.939Z,8.00
2022-10-20T21:27:55.428Z,6.95
2022-10-20T21:32:48.507Z,6.75
2022-10-20T21:37:41.574Z,7.45
2022-10-20T21:42:34.923Z,8.43
2022-10-20T21:47:29.674Z,7.25
2022-10-20T21:52:22.802Z,7.75
2022-10-20T21:57:16.834Z,5.35
2022-10-20T22:02:17.278Z,7.65
2022-10-20T22:07:11.933Z,8.70
2022-10-20T22:12:05.361Z,5.90
2022-10-20T22:16:58.894Z,4.55
2022-10-20T22:21:53.321Z,4.97
2022-10-20T22:26:48.567Z,4.82
2022-10-20T22:31:43.793Z,5.75
2022-10-20T22:36:37.047Z,4.45
2022-10-20T22:41:33.833Z,4.90
2022-10-20T22:46:28.569Z,5.75
2022-10-20T22:51:22.712Z,5.78
2022-10-20T22:56:18.008Z,5.50
2022-10-20T23:01:13.545Z,5.80
2022-10-20T23:06:09.731Z,3.70
2022-10-20T23:11:02.953Z,3.58
2022-10-20T23:15:58.586Z,3.50
2022-10-20T23:20:53.759Z,5.05
2022-10-20T23:25:53.501Z,7.40
2022-10-20T23:30:47.021Z,3.42
2022-10-20T23:35:40.993Z,3.95
2022-10-20T23:40:34.174Z,4.35
2022-10-20T23:45:28.675Z,4.55
2022-10-20T23:50:26.078Z,4.15
2022-10-20T23:55:19.274Z,5.53
